Time;durP1;ratioP1;P1;durP2;ratioP2;P2;SDS_P1;SDS_P2;PMS_P1;PMS_P2;Temp;Humidity;BMP_temperature;BMP_pressure;BME280_temperature;BME280_humidity;BME280_pressure;Samples;Min_cycle;Max_cycle;Signal;HPM_P1;HPM_P2
2023/02/09 00:01:32;;;;;;;1999.90;999.90;;;1.00;99.90;;;;;;5054674;28;20168;-69
2023/02/09 00:03:59;;;;;;;1999.90;999.90;;;1.00;99.90;;;;;;5054725;28;20221;-69
2023/02/09 00:06:28;;;;;;;1999.90;999.90;;;1.00;99.90;;;;;;5055108;28;20900;-69
2023/02/09 00:08:55;;;;;;;1999.90;999.90;;;0.90;99.90;;;;;;5055322;28;20200;-69
2023/02/09 00:14:08;;;;;;;1999.90;999.90;;;0.80;99.90;;;;;;5055234;28;20691;-69
2023/02/09 00:16:33;;;;;;;1999.90;999.90;;;0.70;99.90;;;;;;5054922;28;20207;-69
2023/02/09 00:18:59;;;;;;;1999.90;999.90;;;0.60;99.90;;;;;;5054928;28;20192;-69
2023/02/09 00:21:24;;;;;;;1999.90;999.90;;;0.50;99.90;;;;;;5055044;28;20168;-69
2023/02/09 00:23:50;;;;;;;1999.90;999.90;;;0.40;99.90;;;;;;5054891;28;20168;-69
2023/02/09 00:26:15;;;;;;;1999.90;999.90;;;0.40;99.90;;;;;;5054542;28;20212;-69
2023/02/09 00:28:41;;;;;;;1999.90;999.90;;;0.40;99.90;;;;;;5054795;28;20458;-69
2023/02/09 00:31:09;;;;;;;1999.90;999.90;;;0.40;99.90;;;;;;5054796;28;20221;-69
2023/02/09 00:33:35;;;;;;;1999.90;999.90;;;0.30;99.90;;;;;;5054903;28;20180;-69
2023/02/09 00:36:06;;;;;;;1999.90;999.90;;;0.40;99.90;;;;;;5054692;28;20179;-69
2023/02/09 00:38:33;;;;;;;1999.90;999.90;;;0.30;99.90;;;;;;5060766;28;20168;-69
2023/02/09 00:40:58;;;;;;;1999.90;999.90;;;0.40;99.90;;;;;;5061092;28;20178;-69
2023/02/09 00:43:24;;;;;;;1999.90;999.90;;;0.30;99.90;;;;;;5061253;28;20543;-69
2023/02/09 00:45:49;;;;;;;1999.90;999.90;;;0.20;99.90;;;;;;5061357;28;20175;-69
2023/02/09 00:48:15;;;;;;;1999.90;999.90;;;0.30;99.90;;;;;;5060905;28;20178;-69
2023/02/09 00:50:40;;;;;;;1999.90;999.90;;;0.30;99.90;;;;;;5061160;28;20195;-69
2023/02/09 00:53:06;;;;;;;1999.90;999.90;;;0.30;99.90;;;;;;5060886;28;20176;-69
2023/02/09 00:55:31;;;;;;;1999.90;999.90;;;0.20;99.90;;;;;;5061120;28;20180;-69
2023/02/09 00:57:57;;;;;;;1999.90;999.90;;;0.30;99.90;;;;;;5060782;28;20231;-69
2023/02/09 01:00:23;;;;;;;1999.90;999.90;;;0.30;99.90;;;;;;5061117;28;20195;-69
2023/02/09 01:02:49;;;;;;;1999.90;999.90;;;0.30;99.90;;;;;;5055550;28;20171;-69
2023/02/09 01:05:15;;;;;;;1999.90;999.90;;;0.20;99.90;;;;;;5054119;28;20163;-68
2023/02/09 01:07:40;;;;;;;1999.90;999.90;;;0.30;99.90;;;;;;5053988;28;20522;-68
2023/02/09 01:10:06;;;;;;;1999.90;999.90;;;0.30;99.90;;;;;;5054197;28;20509;-68
2023/02/09 01:12:32;;;;;;;1999.90;999.90;;;0.30;99.90;;;;;;5054258;28;20199;-68
2023/02/09 01:15:00;;;;;;;1999.90;999.90;;;0.30;99.90;;;;;;5053988;28;20585;-69
2023/02/09 01:17:26;;;;;;;1999.90;999.90;;;0.20;99.90;;;;;;5053481;28;20450;-69
2023/02/09 01:19:53;;;;;;;1999.90;999.90;;;0.20;99.90;;;;;;5053526;28;20188;-69
2023/02/09 01:22:19;;;;;;;1999.90;999.90;;;0.10;99.90;;;;;;5053809;28;20176;-69
2023/02/09 01:24:45;;;;;;;1999.90;999.90;;;0.10;99.90;;;;;;5053829;28;20172;-68
2023/02/09 01:27:11;;;;;;;1999.90;999.90;;;0.10;99.90;;;;;;5053359;28;20178;-68
2023/02/09 01:29:37;;;;;;;1999.90;999.90;;;0.10;99.90;;;;;;5053299;28;20818;-68
2023/02/09 01:32:02;;;;;;;1999.90;999.90;;;0.10;99.90;;;;;;5053328;28;20176;-69
2023/02/09 01:34:29;;;;;;;1999.90;999.90;;;0.10;99.90;;;;;;5053716;28;20271;-69
2023/02/09 01:36:54;;;;;;;1999.90;999.90;;;0.10;99.90;;;;;;5053397;28;20191;-68
2023/02/09 01:39:20;;;;;;;1999.90;999.90;;;0.10;99.90;;;;;;5053260;28;20700;-68
2023/02/09 01:41:45;;;;;;;1999.90;999.90;;;0.10;99.90;;;;;;5053308;28;20172;-68
2023/02/09 01:44:11;;;;;;;1999.90;999.90;;;0.10;99.90;;;;;;5053446;28;20602;-68
2023/02/09 01:46:38;;;;;;;1999.90;999.90;;;0.10;99.90;;;;;;5052901;28;20175;-69
2023/02/09 01:49:08;;;;;;;1999.90;999.90;;;0.10;99.90;;;;;;5053529;28;20278;-69
2023/02/09 01:51:48;;;;;;;1999.90;999.90;;;0.00;99.90;;;;;;5053395;28;20263;-68
2023/02/09 01:54:22;;;;;;;1999.90;999.90;;;0.10;99.90;;;;;;5052887;28;20202;-68
2023/02/09 01:56:53;;;;;;;1999.90;999.90;;;0.10;99.90;;;;;;5052804;28;20199;-69
2023/02/09 01:59:19;;;;;;;1999.90;999.90;;;0.10;99.90;;;;;;5052759;28;20211;-68
2023/02/09 02:01:45;;;;;;;1999.90;999.90;;;0.10;99.90;;;;;;5052847;28;20180;-68
2023/02/09 02:04:11;;;;;;;1999.90;999.90;;;0.00;99.90;;;;;;5052767;28;20623;-69
2023/02/09 02:06:37;;;;;;;1999.90;999.90;;;0.00;99.90;;;;;;5052707;28;20179;-69
2023/02/09 02:09:14;;;;;;;1999.90;999.90;;;0.00;99.90;;;;;;5052759;28;20615;-69
2023/02/09 02:11:44;;;;;;;1999.90;999.90;;;0.00;99.90;;;;;;5052573;28;20258;-69
2023/02/09 02:14:35;;;;;;;1999.90;999.90;;;0.00;99.90;;;;;;5053192;28;20179;-69
2023/02/09 02:17:06;;;;;;;1999.90;999.90;;;0.00;99.90;;;;;;5040996;28;20230;-68
2023/02/09 02:19:50;;;;;;;1999.90;999.90;;;-0.10;99.90;;;;;;5054011;28;20206;-69
2023/02/09 02:22:25;;;;;;;1999.90;999.90;;;-0.20;99.90;;;;;;5056712;28;20164;-69
2023/02/09 02:25:02;;;;;;;1999.90;999.90;;;-0.30;99.90;;;;;;5056828;28;20173;-69
2023/02/09 02:27:36;;;;;;;1999.90;999.90;;;-0.30;99.90;;;;;;5056460;28;20229;-68
2023/02/09 02:30:26;;;;;;;1999.90;999.90;;;-0.30;99.90;;;;;;5056493;28;20210;-69
2023/02/09 02:32:58;;;;;;;1999.90;999.90;;;-0.30;1.00;;;;;;5056590;28;20602;-69
2023/02/09 02:35:30;;;;;;;1999.90;999.90;;;-0.30;1.00;;;;;;5056713;28;20608;-69
2023/02/09 02:38:06;;;;;;;1999.90;999.90;;;-0.30;1.00;;;;;;5058425;28;20252;-69
2023/02/09 02:40:39;;;;;;;1999.90;999.90;;;-0.20;99.90;;;;;;5058770;28;20195;-69
2023/02/09 02:43:37;;;;;;;1999.90;999.90;;;-0.20;1.00;;;;;;5059057;28;20195;-69
2023/02/09 02:46:21;;;;;;;1999.90;999.90;;;-0.20;1.00;;;;;;5045391;28;20195;-68
2023/02/09 02:49:03;;;;;;;1999.90;999.90;;;-0.30;23.70;;;;;;5059303;28;20180;-70
2023/02/09 02:51:41;;;;;;;1999.90;999.90;;;-0.20;1.00;;;;;;5059307;28;20255;-70
2023/02/09 02:54:12;;;;;;;1999.90;999.90;;;-0.30;1.00;;;;;;5059181;28;20755;-69
2023/02/09 02:56:42;;;;;;;1999.90;999.90;;;-0.30;1.00;;;;;;5058838;28;20274;-68
2023/02/09 02:59:11;;;;;;;1999.90;999.90;;;-0.40;1.00;;;;;;5058926;28;20657;-68
2023/02/09 03:01:48;;;;;;;1999.90;999.90;;;-0.40;99.90;;;;;;5059421;28;20579;-69
2023/02/09 03:04:15;;;;;;;1999.90;999.90;;;-0.50;99.90;;;;;;5059050;28;20227;-69
2023/02/09 03:06:41;;;;;;;1999.90;999.90;;;-0.60;99.90;;;;;;5058834;28;20660;-69
2023/02/09 03:09:08;;;;;;;1999.90;999.90;;;-0.60;1.00;;;;;;5059307;28;20200;-69
2023/02/09 03:11:38;;;;;;;1999.90;999.90;;;-0.70;1.00;;;;;;5059140;28;20190;-69
2023/02/09 03:14:40;;;;;;;1999.90;999.90;;;-0.70;1.00;;;;;;5059062;28;20163;-69
2023/02/09 03:17:29;;;;;;;1999.90;999.90;;;-0.70;99.90;;;;;;5058992;28;20257;-69
2023/02/09 03:20:12;;;;;;;1999.90;999.90;;;-0.80;99.90;;;;;;5059117;28;20255;-69
2023/02/09 03:22:46;;;;;;;1999.90;999.90;;;-0.90;99.90;;;;;;5058924;28;20148;-69
2023/02/09 03:25:25;;;;;;;1999.90;999.90;;;-1.00;99.90;;;;;;5058785;28;20270;-69
2023/02/09 03:28:15;;;;;;;1999.90;999.90;;;-1.00;1.00;;;;;;5059425;28;20163;-68
2023/02/09 03:30:43;;;;;;;1999.90;999.90;;;-1.10;93.50;;;;;;5057176;28;20204;-68
2023/02/09 03:33:38;;;;;;;1999.90;999.90;;;-1.20;99.90;;;;;;5059136;28;20207;-69
2023/02/09 03:36:12;;;;;;;1999.90;999.90;;;-1.30;1.00;;;;;;5037607;28;20211;-69
2023/02/09 03:38:38;;;;;;;1999.90;999.90;;;-1.10;1.00;;;;;;5058761;28;20611;-69
2023/02/09 03:41:04;;;;;;;1999.90;999.90;;;-1.30;99.90;;;;;;5058740;28;20255;-69
2023/02/09 03:46:13;;;;;;;1999.90;999.90;;;-1.30;1.00;;;;;;5058059;28;20213;-68
2023/02/09 03:48:39;;;;;;;1999.90;999.90;;;-1.10;1.00;;;;;;5054889;28;20171;-68
2023/02/09 03:51:05;;;;;;;1999.90;999.90;;;-1.30;99.90;;;;;;5054714;28;20175;-68
2023/02/09 03:53:34;;;;;;;1999.90;999.90;;;-1.30;99.90;;;;;;5054536;28;20178;-68
2023/02/09 03:55:59;;;;;;;1999.90;999.90;;;-1.30;1.00;;;;;;5054724;28;20183;-68
2023/02/09 03:58:25;;;;;;;1999.90;999.90;;;-1.40;67.60;;;;;;5054440;28;20174;-68
2023/02/09 04:00:50;;;;;;;1999.90;999.90;;;-1.30;1.00;;;;;;5054427;28;20223;-68
2023/02/09 04:03:16;;;;;;;1999.90;999.90;;;-1.30;1.00;;;;;;5054972;28;20258;-69
2023/02/09 04:05:41;;;;;;;1999.90;999.90;;;-1.30;1.00;;;;;;5055818;28;20172;-68
2023/02/09 04:08:07;;;;;;;1999.90;999.90;;;-1.30;1.00;;;;;;5058903;28;20184;-68
2023/02/09 04:10:32;;;;;;;1999.90;999.90;;;-1.30;99.90;;;;;;5058221;28;20851;-68
2023/02/09 04:12:58;;;;;;;1999.90;999.90;;;-1.30;99.90;;;;;;5058344;28;20171;-69
2023/02/09 04:15:23;;;;;;;1999.90;999.90;;;-1.30;99.90;;;;;;5057682;28;20652;-68
2023/02/09 04:17:49;;;;;;;1999.90;999.90;;;-1.30;99.90;;;;;;5058044;28;20562;-69
2023/02/09 04:20:15;;;;;;;1999.90;999.90;;;-1.30;99.90;;;;;;5057208;28;20230;-68
2023/02/09 04:22:40;;;;;;;1999.90;999.90;;;-1.30;99.90;;;;;;5054292;28;20179;-68
2023/02/09 04:25:06;;;;;;;1999.90;999.90;;;-1.30;1.00;;;;;;5054439;28;20630;-68
2023/02/09 04:27:32;;;;;;;1999.90;999.90;;;-1.40;1.00;;;;;;5054221;28;20182;-68
2023/02/09 04:29:57;;;;;;;1999.90;999.90;;;-1.40;99.90;;;;;;5054001;28;20210;-68
2023/02/09 04:32:23;;;;;;;1999.90;999.90;;;-1.40;99.90;;;;;;5053989;28;20171;-68
2023/02/09 04:34:48;;;;;;;1999.90;999.90;;;-1.50;99.90;;;;;;5054296;28;20172;-68
2023/02/09 04:37:14;;;;;;;1999.90;999.90;;;-1.50;1.00;;;;;;5036927;28;20200;-68
2023/02/09 04:39:39;;;;;;;1999.90;999.90;;;-1.50;1.00;;;;;;5033785;28;20194;-68
2023/02/09 04:42:05;;;;;;;1999.90;999.90;;;-1.50;99.90;;;;;;5033698;28;20674;-68
2023/02/09 04:44:30;;;;;;;1999.90;999.90;;;-1.60;99.90;;;;;;5034017;28;20173;-68
2023/02/09 04:46:56;;;;;;;1999.90;999.90;;;-1.50;99.90;;;;;;5034170;28;20179;-68
2023/02/09 04:49:21;;;;;;;1999.90;999.90;;;-1.50;1.00;;;;;;5033772;28;20248;-68
2023/02/09 04:51:47;;;;;;;1999.90;999.90;;;-1.50;99.90;;;;;;5033752;28;20666;-68
2023/02/09 04:54:13;;;;;;;1999.90;999.90;;;-1.60;99.90;;;;;;5033804;28;20187;-68
2023/02/09 04:56:38;;;;;;;1999.90;999.90;;;-1.60;1.00;;;;;;5033541;28;20257;-68
2023/02/09 05:01:48;;;;;;;1999.90;999.90;;;-1.70;1.00;;;;;;5033504;28;20180;-68
2023/02/09 05:04:14;;;;;;;1999.90;999.90;;;-1.70;33.70;;;;;;5033530;28;20177;-68
2023/02/09 05:06:39;;;;;;;1999.90;999.90;;;-1.70;99.90;;;;;;5033460;28;20222;-68
2023/02/09 05:09:05;;;;;;;1999.90;999.90;;;-1.80;99.90;;;;;;5033742;28;20693;-68
2023/02/09 05:11:30;;;;;;;1999.90;999.90;;;-1.80;1.00;;;;;;5033357;28;20259;-68
2023/02/09 05:13:56;;;;;;;1999.90;999.90;;;-1.80;1.00;;;;;;5033674;28;20169;-68
2023/02/09 05:16:21;;;;;;;1999.90;999.90;;;-1.80;1.00;;;;;;5033107;28;22064;-68
2023/02/09 05:18:49;;;;;;;1999.90;999.90;;;-1.80;1.00;;;;;;5033466;28;20207;-68
2023/02/09 05:21:14;;;;;;;1999.90;999.90;;;-1.80;99.90;;;;;;5034722;28;20171;-69
2023/02/09 05:23:41;;;;;;;1999.90;999.90;;;-1.80;99.90;;;;;;5037174;28;20168;-69
2023/02/09 05:26:06;;;;;;;1999.90;999.90;;;-1.80;99.90;;;;;;5036427;28;20191;-69
2023/02/09 05:28:32;;;;;;;1999.90;999.90;;;-1.90;78.40;;;;;;5036543;28;20188;-69
2023/02/09 05:30:58;;;;;;;1999.90;999.90;;;-1.90;99.90;;;;;;5036467;28;20188;-69
2023/02/09 05:33:24;;;;;;;1999.90;999.90;;;-1.90;99.90;;;;;;5037296;28;20652;-69
2023/02/09 05:35:51;;;;;;;1999.90;999.90;;;-1.90;99.90;;;;;;5037116;28;20161;-69
2023/02/09 05:38:17;;;;;;;1999.90;999.90;;;-2.00;1.00;;;;;;5035311;28;20214;-69
2023/02/09 05:40:42;;;;;;;1999.90;999.90;;;-2.00;1.00;;;;;;5035804;28;20279;-69
2023/02/09 05:43:08;;;;;;;1999.90;999.90;;;-2.00;1.00;;;;;;5036323;28;20259;-69
2023/02/09 05:45:34;;;;;;;1999.90;999.90;;;-2.10;99.90;;;;;;5035371;28;20214;-69
2023/02/09 05:48:00;;;;;;;1999.90;999.90;;;-2.10;99.90;;;;;;5035464;28;20700;-69
2023/02/09 05:50:25;;;;;;;1999.90;999.90;;;-2.20;99.90;;;;;;5035249;28;20461;-69
2023/02/09 05:52:51;;;;;;;1999.90;999.90;;;-2.20;21.20;;;;;;5035659;28;20172;-70
2023/02/09 05:55:16;;;;;;;1999.90;999.90;;;-2.20;99.90;;;;;;5033526;28;20196;-69
2023/02/09 05:57:42;;;;;;;1999.90;999.90;;;-2.20;99.90;;;;;;5034192;28;20713;-69
2023/02/09 06:00:09;;;;;;;1999.90;999.90;;;-2.20;99.90;;;;;;5033978;28;20218;-69
2023/02/09 06:02:34;;;;;;;1999.90;999.90;;;-2.20;99.90;;;;;;5033853;28;20172;-69
2023/02/09 06:05:00;;;;;;;1999.90;999.90;;;-2.30;99.90;;;;;;5034459;28;20263;-69
2023/02/09 06:07:26;;;;;;;1999.90;999.90;;;-2.30;1.00;;;;;;5032623;28;20191;-69
2023/02/09 06:09:51;;;;;;;1999.90;999.90;;;-2.30;1.00;;;;;;5032746;28;20338;-69
2023/02/09 06:12:17;;;;;;;1999.90;999.90;;;-2.30;96.20;;;;;;5032856;28;20233;-69
2023/02/09 06:14:42;;;;;;;1999.90;999.90;;;-2.40;99.90;;;;;;5033046;28;20168;-69
2023/02/09 06:17:08;;;;;;;1999.90;999.90;;;-2.30;99.90;;;;;;5032855;28;20184;-69
2023/02/09 06:19:33;;;;;;;1999.90;999.90;;;-2.30;99.90;;;;;;5033092;28;20580;-68
2023/02/09 06:21:59;;;;;;;1999.90;999.90;;;-2.30;99.90;;;;;;5032557;28;20168;-68
2023/02/09 06:24:25;;;;;;;1999.90;999.90;;;-2.30;99.90;;;;;;5032263;28;20175;-69
2023/02/09 06:26:51;;;;;;;1999.90;999.90;;;-2.40;99.90;;;;;;5031928;28;20183;-69
2023/02/09 06:29:16;;;;;;;1999.90;999.90;;;-2.40;99.90;;;;;;5031919;28;20246;-69
2023/02/09 06:31:42;;;;;;;1999.90;999.90;;;-2.50;99.90;;;;;;5031639;28;20176;-69
2023/02/09 06:34:08;;;;;;;1999.90;999.90;;;-2.50;99.90;;;;;;5031757;28;20626;-69
2023/02/09 06:36:34;;;;;;;1999.90;999.90;;;-2.40;1.00;;;;;;5031801;28;20665;-69
2023/02/09 06:39:00;;;;;;;1999.90;999.90;;;-2.30;1.00;;;;;;5031697;28;20192;-69
2023/02/09 06:41:26;;;;;;;1999.90;999.90;;;-2.40;1.00;;;;;;5031599;28;20199;-69
2023/02/09 06:43:51;;;;;;;1999.90;999.90;;;-2.40;1.00;;;;;;5031566;28;20177;-69
2023/02/09 06:46:17;;;;;;;1999.90;999.90;;;-2.40;1.00;;;;;;5031674;28;20415;-68
2023/02/09 06:48:42;;;;;;;1999.90;999.90;;;-2.30;1.00;;;;;;5031622;28;20175;-69
2023/02/09 06:51:10;;;;;;;1999.90;999.90;;;-2.30;1.00;;;;;;5031623;28;20175;-69
2023/02/09 06:53:37;;;;;;;1999.90;999.90;;;-2.30;99.90;;;;;;5031750;28;20635;-69
2023/02/09 06:56:03;;;;;;;1999.90;999.90;;;-2.30;1.00;;;;;;5031748;28;20259;-69
2023/02/09 06:58:29;;;;;;;1999.90;999.90;;;-2.20;99.90;;;;;;5031545;28;20294;-69
2023/02/09 07:00:54;;;;;;;1999.90;999.90;;;-2.20;99.90;;;;;;5031485;28;20447;-69
2023/02/09 07:03:20;;;;;;;1999.90;999.90;;;-2.20;99.90;;;;;;5031577;28;20168;-69
2023/02/09 07:05:45;;;;;;;1999.90;999.90;;;-2.20;95.00;;;;;;5033088;28;20592;-69
2023/02/09 07:08:11;;;;;;;1999.90;999.90;;;-2.20;26.80;;;;;;5035095;28;20234;-69
2023/02/09 07:10:39;;;;;;;1999.90;999.90;;;-2.20;33.30;;;;;;5035057;28;20199;-69
2023/02/09 07:13:05;;;;;;;1999.90;999.90;;;-2.20;99.90;;;;;;5035044;28;20545;-69
2023/02/09 07:15:30;;;;;;;1999.90;999.90;;;-2.10;99.90;;;;;;5035072;28;20179;-68
2023/02/09 07:17:57;;;;;;;1999.90;999.90;;;-2.10;99.90;;;;;;5035057;28;20738;-68
2023/02/09 07:20:22;;;;;;;1999.90;999.90;;;-2.00;99.90;;;;;;5035103;28;20230;-69
2023/02/09 07:22:48;;;;;;;1999.90;999.90;;;-2.00;99.90;;;;;;5035608;28;20176;-68
2023/02/09 07:25:13;;;;;;;1999.90;999.90;;;-1.90;99.90;;;;;;5035419;28;20197;-69
2023/02/09 07:27:43;;;;;;;1999.90;999.90;;;-1.90;99.90;;;;;;5035031;28;20230;-68
2023/02/09 07:30:10;;;;;;;1999.90;999.90;;;-1.80;99.90;;;;;;5037945;28;20208;-68
2023/02/09 07:32:41;;;;;;;1999.90;999.90;;;-1.70;99.90;;;;;;5035126;28;20180;-69
2023/02/09 07:35:06;;;;;;;1999.90;999.90;;;-1.70;99.90;;;;;;5035407;28;20173;-69
2023/02/09 07:37:34;;;;;;;1999.90;999.90;;;-1.60;88.20;;;;;;5038182;28;20306;-69
2023/02/09 07:40:00;;;;;;;1999.90;999.90;;;-1.50;1.00;;;;;;5037707;28;20419;-69
2023/02/09 07:42:25;;;;;;;1999.90;999.90;;;-1.40;1.00;;;;;;5038108;28;20271;-69
2023/02/09 07:44:51;;;;;;;1999.90;999.90;;;-1.30;1.00;;;;;;5038633;28;20180;-69
2023/02/09 07:47:16;;;;;;;1999.90;999.90;;;-1.20;1.00;;;;;;5037897;28;20176;-69
2023/02/09 07:49:42;;;;;;;1999.90;999.90;;;-1.10;99.90;;;;;;5037877;28;20227;-69
2023/02/09 07:52:08;;;;;;;1999.90;999.90;;;-1.10;99.90;;;;;;5037352;28;20168;-69
2023/02/09 07:54:33;;;;;;;1999.90;999.90;;;-1.10;1.00;;;;;;5038446;28;20661;-69
2023/02/09 07:56:59;;;;;;;1999.90;999.90;;;-1.10;1.00;;;;;;5037835;28;20191;-69
2023/02/09 07:59:24;;;;;;;1999.90;999.90;;;-1.00;1.00;;;;;;5037748;28;20662;-69
2023/02/09 08:01:50;;;;;;;1999.90;999.90;;;-1.00;1.00;;;;;;5039343;28;20603;-69
2023/02/09 08:04:16;;;;;;;1999.90;999.90;;;-0.90;6.40;;;;;;5039508;28;20171;-69
2023/02/09 08:06:44;;;;;;;1999.90;999.90;;;-0.80;1.00;;;;;;5039411;28;20172;-69
2023/02/09 08:09:12;;;;;;;1999.90;999.90;;;-0.70;1.00;;;;;;5039272;28;20196;-69
2023/02/09 08:11:57;;;;;;;1999.90;999.90;;;-0.60;1.00;;;;;;5039313;28;20263;-69
2023/02/09 08:14:27;;;;;;;1999.90;999.90;;;-0.50;99.90;;;;;;5036753;28;20160;-69
2023/02/09 08:17:18;;;;;;;1999.90;999.90;;;-0.40;99.90;;;;;;5032871;28;20192;-69
2023/02/09 08:19:42;;;;;;;1999.90;999.90;;;-0.40;99.90;;;;;;5040721;28;20288;-69
2023/02/09 08:22:08;;;;;;;1999.90;999.90;;;-0.30;99.90;;;;;;5040269;28;20699;-69
2023/02/09 08:24:34;;;;;;;1999.90;999.90;;;-0.30;99.90;;;;;;5039567;28;20196;-69
2023/02/09 08:26:59;;;;;;;1999.90;999.90;;;-0.20;99.90;;;;;;5039685;28;20415;-69
2023/02/09 08:29:26;;;;;;;1999.90;999.90;;;-0.10;99.90;;;;;;5039166;28;20212;-70
2023/02/09 08:31:52;;;;;;;1999.90;999.90;;;0.00;99.90;;;;;;5038934;28;20187;-69
2023/02/09 08:34:18;;;;;;;1999.90;999.90;;;0.10;99.90;;;;;;5039347;28;20208;-69
2023/02/09 08:36:44;;;;;;;1999.90;999.90;;;0.20;99.90;;;;;;5039570;28;20199;-69
2023/02/09 08:39:09;;;;;;;1999.90;999.90;;;0.30;99.90;;;;;;5039214;28;20639;-69
2023/02/09 08:41:35;;;;;;;1999.90;999.90;;;0.40;99.90;;;;;;5039088;28;20195;-69
2023/02/09 08:44:01;;;;;;;1999.90;999.90;;;0.60;99.90;;;;;;5039852;28;20199;-69
2023/02/09 08:46:27;;;;;;;1999.90;999.90;;;0.70;99.90;;;;;;5039607;28;20695;-69
2023/02/09 08:48:53;;;;;;;1999.90;999.90;;;0.90;99.90;;;;;;5039623;28;20201;-69
2023/02/09 08:51:18;;;;;;;1999.90;999.90;;;0.90;99.90;;;;;;5039438;28;20164;-69
2023/02/09 08:53:50;;;;;;;1999.90;999.90;;;0.80;99.90;;;;;;5039859;28;20191;-68
2023/02/09 08:56:17;;;;;;;1999.90;999.90;;;0.90;99.90;;;;;;5039542;28;20191;-70
2023/02/09 08:58:42;;;;;;;1999.90;999.90;;;1.10;99.90;;;;;;5039243;28;20183;-68
2023/02/09 09:01:08;;;;;;;1999.90;999.90;;;1.00;99.90;;;;;;5039020;28;20247;-70
2023/02/09 09:03:35;;;;;;;1999.90;999.90;;;1.20;99.90;;;;;;5038953;28;20164;-69
2023/02/09 09:06:04;;;;;;;1999.90;999.90;;;1.30;99.90;;;;;;5039263;28;20173;-69
2023/02/09 09:08:31;;;;;;;1999.90;999.90;;;1.40;99.90;;;;;;5038632;28;20176;-69
2023/02/09 09:10:57;;;;;;;1999.90;999.90;;;1.40;99.90;;;;;;5037766;28;20272;-70
2023/02/09 09:13:23;;;;;;;1999.90;999.90;;;1.50;99.90;;;;;;5037597;28;20176;-69
2023/02/09 09:15:50;;;;;;;1999.90;999.90;;;1.60;99.90;;;;;;5038131;28;20179;-68
2023/02/09 09:18:16;;;;;;;1999.90;999.90;;;1.60;99.90;;;;;;5037786;28;20222;-70
2023/02/09 09:20:42;;;;;;;1999.90;999.90;;;1.60;99.90;;;;;;5037489;28;20188;-69
2023/02/09 09:23:08;;;;;;;1999.90;999.90;;;1.70;99.90;;;;;;5037568;28;20458;-69
2023/02/09 09:25:34;;;;;;;1999.90;999.90;;;1.80;99.90;;;;;;5032077;28;20418;-69
2023/02/09 09:28:00;;;;;;;1999.90;999.90;;;1.90;99.90;;;;;;5034064;28;20650;-70
2023/02/09 09:30:25;;;;;;;1999.90;999.90;;;2.00;99.90;;;;;;5031754;28;20615;-70
2023/02/09 09:32:51;;;;;;;1999.90;999.90;;;2.10;99.90;;;;;;5031812;28;20406;-70
2023/02/09 09:35:17;;;;;;;1999.90;999.90;;;2.20;99.90;;;;;;5032374;28;20295;-70
2023/02/09 09:37:43;;;;;;;1999.90;999.90;;;2.30;99.90;;;;;;5031243;28;20224;-69
2023/02/09 09:40:17;;;;;;;1999.90;999.90;;;2.30;99.90;;;;;;5032298;28;20426;-69
2023/02/09 09:42:49;;;;;;;1999.90;999.90;;;2.50;99.90;;;;;;5032768;28;20168;-69
2023/02/09 09:45:20;;;;;;;1999.90;999.90;;;2.50;99.90;;;;;;5032419;28;20164;-69
2023/02/09 09:47:46;;;;;;;1999.90;999.90;;;2.60;99.90;;;;;;5032349;28;20195;-71
2023/02/09 09:50:18;;;;;;;1999.90;999.90;;;2.70;99.90;;;;;;5031457;28;20631;-69
2023/02/09 09:53:31;;;;;;;1999.90;999.90;;;2.70;99.90;;;;;;5032789;28;20247;-70
2023/02/09 09:56:01;;;;;;;1999.90;999.90;;;2.80;99.90;;;;;;5036952;28;20179;-69
2023/02/09 09:58:29;;;;;;;1999.90;999.90;;;2.80;99.90;;;;;;5060810;28;20191;-68
2023/02/09 10:00:55;;;;;;;1999.90;999.90;;;2.90;99.90;;;;;;5065964;28;20202;-69
2023/02/09 10:03:22;;;;;;;1999.90;999.90;;;3.00;99.90;;;;;;5055565;28;20170;-71
2023/02/09 10:06:18;;;;;;;1999.90;999.90;;;3.10;99.90;;;;;;5067115;28;20432;-70
2023/02/09 10:08:54;;;;;;;1999.90;999.90;;;3.40;99.90;;;;;;5054853;28;20186;-70
2023/02/09 10:11:29;;;;;;;1999.90;999.90;;;3.40;99.90;;;;;;5046188;28;20496;-70
2023/02/09 10:13:56;;;;;;;1999.90;999.90;;;3.90;99.90;;;;;;5042556;28;20171;-70
2023/02/09 10:16:25;;;;;;;1999.90;999.90;;;3.80;99.90;;;;;;5051218;28;20436;-70
2023/02/09 10:18:52;;;;;;;1999.90;999.90;;;3.90;99.90;;;;;;5051011;28;20175;-71
2023/02/09 10:21:18;;;;;;;1999.90;999.90;;;4.00;99.90;;;;;;5030912;28;20806;-70
2023/02/09 10:24:08;;;;;;;1999.90;999.90;;;4.10;99.90;;;;;;5031598;28;20176;-70
2023/02/09 10:26:35;;;;;;;1999.90;999.90;;;4.20;99.90;;;;;;5030901;28;20466;-70
2023/02/09 10:29:10;;;;;;;1999.90;999.90;;;4.30;99.90;;;;;;5042506;28;20543;-70
2023/02/09 10:31:54;;;;;;;1999.90;999.90;;;4.30;99.90;;;;;;5046390;28;20460;-70
2023/02/09 10:34:23;;;;;;;1999.90;999.90;;;4.40;99.90;;;;;;5051115;28;20836;-70
2023/02/09 10:36:52;;;;;;;1999.90;999.90;;;4.40;99.90;;;;;;5041267;28;20450;-70
2023/02/09 10:39:19;;;;;;;1999.90;999.90;;;4.50;99.90;;;;;;5031352;28;20472;-70
2023/02/09 10:41:48;;;;;;;1999.90;999.90;;;4.60;99.90;;;;;;5034650;28;20460;-71
2023/02/09 10:44:35;;;;;;;1999.90;999.90;;;4.50;99.90;;;;;;5035004;28;20491;-70
2023/02/09 10:47:18;;;;;;;1999.90;999.90;;;4.60;99.90;;;;;;5035815;28;20802;-70
2023/02/09 10:50:04;;;;;;;1999.90;999.90;;;4.60;99.90;;;;;;5035334;28;20432;-70
2023/02/09 10:52:33;;;;;;;1999.90;999.90;;;4.60;99.90;;;;;;5034891;28;20402;-69
2023/02/09 10:55:13;;;;;;;1999.90;999.90;;;4.70;99.90;;;;;;5036230;28;20507;-68
2023/02/09 10:57:39;;;;;;;1999.90;999.90;;;4.80;99.90;;;;;;5036406;28;20584;-69
2023/02/09 11:00:30;;;;;;;1999.90;999.90;;;5.00;99.90;;;;;;5036965;28;20455;-68
2023/02/09 11:03:02;;;;;;;1999.90;999.90;;;5.10;99.90;;;;;;5052288;28;20198;-68
2023/02/09 11:05:32;;;;;;;1999.90;999.90;;;5.20;99.90;;;;;;5044023;28;20411;-69
2023/02/09 11:08:19;;;;;;;1999.90;999.90;;;5.20;99.90;;;;;;5041058;28;20830;-68
2023/02/09 11:11:12;;;;;;;1999.90;999.90;;;5.20;99.90;;;;;;5061649;28;20456;-69
2023/02/09 11:13:39;;;;;;;1999.90;999.90;;;5.30;99.90;;;;;;5041198;28;20383;-69
2023/02/09 11:16:25;;;;;;;1999.90;999.90;;;5.40;99.90;;;;;;5042065;28;20445;-69
2023/02/09 11:19:03;;;;;;;1999.90;999.90;;;5.90;99.90;;;;;;5040857;28;20395;-68
2023/02/09 11:21:50;;;;;;;1999.90;999.90;;;5.50;99.90;;;;;;5038986;28;20404;-68
2023/02/09 11:24:59;;;;;;;1999.90;999.90;;;5.60;99.90;;;;;;5036691;28;21133;-69
2023/02/09 11:27:52;;;;;;;1999.90;999.90;;;5.50;99.90;;;;;;5035954;28;20389;-69
2023/02/09 11:30:23;;;;;;;1999.90;999.90;;;5.40;99.90;;;;;;5035079;28;20455;-70
2023/02/09 11:33:15;;;;;;;1999.90;999.90;;;5.50;99.90;;;;;;5034635;28;20755;-69
2023/02/09 11:36:22;;;;;;;1999.90;999.90;;;5.60;99.90;;;;;;5015831;28;20787;-69
2023/02/09 11:39:04;;;;;;;1999.90;999.90;;;5.90;99.90;;;;;;4999200;28;20507;-70
2023/02/09 11:44:27;;;;;;;1999.90;999.90;;;6.30;99.90;;;;;;5034341;28;20394;-69
2023/02/09 11:47:01;;;;;;;1999.90;999.90;;;6.40;99.90;;;;;;5034625;28;20397;-70
2023/02/09 11:49:32;;;;;;;1999.90;999.90;;;6.50;99.90;;;;;;5034495;28;20537;-70
2023/02/09 11:52:00;;;;;;;1999.90;999.90;;;6.60;99.90;;;;;;5033323;28;20387;-69
2023/02/09 11:54:31;;;;;;;1999.90;999.90;;;6.90;99.90;;;;;;5035827;28;20400;-69
2023/02/09 11:57:04;;;;;;;1999.90;999.90;;;7.30;99.90;;;;;;5035297;28;20442;-69
2023/02/09 11:59:44;;;;;;;1999.90;999.90;;;8.00;99.90;;;;;;5035597;28;20421;-70
2023/02/09 12:02:36;;;;;;;1999.90;999.90;;;8.50;99.10;;;;;;5034407;28;20412;-69
2023/02/09 12:05:02;;;;;;;1999.90;999.90;;;8.90;95.60;;;;;;5035280;28;20410;-69
2023/02/09 12:07:47;;;;;;;1999.90;999.90;;;9.40;93.70;;;;;;5034533;28;20402;-70
2023/02/09 12:10:25;;;;;;;1999.90;999.90;;;9.80;90.10;;;;;;5038933;28;20440;-70
2023/02/09 12:13:12;;;;;;;1999.90;999.90;;;9.90;80.70;;;;;;5044996;28;20491;-70
2023/02/09 12:15:44;;;;;;;1999.90;999.90;;;10.00;76.50;;;;;;5054308;28;20395;-69
2023/02/09 12:18:12;;;;;;;1999.90;999.90;;;10.30;72.70;;;;;;5059064;28;20456;-70
2023/02/09 12:20:37;;;;;;;1999.90;999.90;;;10.50;67.60;;;;;;5037549;28;20466;-69
2023/02/09 12:23:31;;;;;;;1999.90;999.90;;;10.80;67.40;;;;;;5033794;28;20441;-69
2023/02/09 12:25:58;;;;;;;1999.90;999.90;;;11.10;60.80;;;;;;5033529;28;20182;-69
2023/02/09 12:28:30;;;;;;;1999.90;999.90;;;11.50;55.70;;;;;;5033038;28;20427;-69
2023/02/09 12:31:01;;;;;;;1999.90;999.90;;;11.40;49.30;;;;;;5033068;28;20426;-69